sensor_id;sensor_type;location;lat;lon;timestamp;P1;durP1;ratioP1;P2;durP2;ratioP2
16403;SDS011;8311;50.158;8.642;2023-04-06T00:01:33;6.43;;;3.35;;
16403;SDS011;8311;50.158;8.642;2023-04-06T00:04:27;5.43;;;3.15;;
16403;SDS011;8311;50.158;8.642;2023-04-06T00:07:20;5.78;;;3.00;;
16403;SDS011;8311;50.158;8.642;2023-04-06T00:10:13;5.38;;;3.10;;
16403;SDS011;8311;50.158;8.642;2023-04-06T00:13:07;4.05;;;2.60;;
16403;SDS011;8311;50.158;8.642;2023-04-06T00:16:02;4.47;;;2.78;;
16403;SDS011;8311;50.158;8.642;2023-04-06T00:18:56;4.82;;;2.90;;
16403;SDS011;8311;50.158;8.642;2023-04-06T00:21:49;7.07;;;3.45;;
16403;SDS011;8311;50.158;8.642;2023-04-06T00:24:43;6.18;;;2.60;;
16403;SDS011;8311;50.158;8.642;2023-04-06T00:27:36;6.22;;;2.88;;
16403;SDS011;8311;50.158;8.642;2023-04-06T00:30:30;4.78;;;2.75;;
16403;SDS011;8311;50.158;8.642;2023-04-06T00:33:24;4.78;;;3.10;;
16403;SDS011;8311;50.158;8.642;2023-04-06T00:36:17;5.47;;;2.65;;
16403;SDS011;8311;50.158;8.642;2023-04-06T00:39:10;6.07;;;2.78;;
16403;SDS011;8311;50.158;8.642;2023-04-06T00:42:06;4.28;;;2.42;;
16403;SDS011;8311;50.158;8.642;2023-04-06T00:45:03;3.47;;;2.10;;
16403;SDS011;8311;50.158;8.642;2023-04-06T00:47:57;3.65;;;2.42;;
16403;SDS011;8311;50.158;8.642;2023-04-06T00:50:52;6.68;;;3.28;;
16403;SDS011;8311;50.158;8.642;2023-04-06T00:53:45;5.00;;;2.92;;
16403;SDS011;8311;50.158;8.642;2023-04-06T00:56:38;3.92;;;2.30;;
16403;SDS011;8311;50.158;8.642;2023-04-06T00:59:31;3.85;;;2.10;;
16403;SDS011;8311;50.158;8.642;2023-04-06T01:02:25;5.07;;;2.60;;
16403;SDS011;8311;50.158;8.642;2023-04-06T01:05:19;4.50;;;2.45;;
16403;SDS011;8311;50.158;8.642;2023-04-06T01:08:14;6.97;;;2.90;;
16403;SDS011;8311;50.158;8.642;2023-04-06T01:11:08;6.13;;;2.72;;
16403;SDS011;8311;50.158;8.642;2023-04-06T01:14:01;3.75;;;2.70;;
16403;SDS011;8311;50.158;8.642;2023-04-06T01:16:57;4.05;;;2.72;;
16403;SDS011;8311;50.158;8.642;2023-04-06T01:19:52;4.28;;;2.80;;
16403;SDS011;8311;50.158;8.642;2023-04-06T01:22:47;4.57;;;3.00;;
16403;SDS011;8311;50.158;8.642;2023-04-06T01:25:40;4.47;;;2.60;;
16403;SDS011;8311;50.158;8.642;2023-04-06T01:28:33;4.82;;;2.75;;
16403;SDS011;8311;50.158;8.642;2023-04-06T01:31:28;5.03;;;2.90;;
16403;SDS011;8311;50.158;8.642;2023-04-06T01:34:22;4.93;;;2.80;;
16403;SDS011;8311;50.158;8.642;2023-04-06T01:37:15;4.72;;;2.53;;
16403;SDS011;8311;50.158;8.642;2023-04-06T01:40:10;4.15;;;2.40;;
16403;SDS011;8311;50.158;8.642;2023-04-06T01:43:05;5.43;;;2.72;;
16403;SDS011;8311;50.158;8.642;2023-04-06T01:45:59;3.72;;;2.33;;
16403;SDS011;8311;50.158;8.642;2023-04-06T01:48:53;3.92;;;2.47;;
16403;SDS011;8311;50.158;8.642;2023-04-06T01:51:46;5.47;;;2.13;;
16403;SDS011;8311;50.158;8.642;2023-04-06T01:54:39;4.70;;;2.67;;
16403;SDS011;8311;50.158;8.642;2023-04-06T01:57:33;4.82;;;2.67;;
16403;SDS011;8311;50.158;8.642;2023-04-06T02:00:27;5.30;;;2.63;;
16403;SDS011;8311;50.158;8.642;2023-04-06T02:03:20;4.40;;;2.72;;
16403;SDS011;8311;50.158;8.642;2023-04-06T02:06:13;5.13;;;2.83;;
16403;SDS011;8311;50.158;8.642;2023-04-06T02:09:06;4.15;;;2.75;;
16403;SDS011;8311;50.158;8.642;2023-04-06T02:12:00;4.90;;;2.80;;
16403;SDS011;8311;50.158;8.642;2023-04-06T02:14:55;4.97;;;3.25;;
16403;SDS011;8311;50.158;8.642;2023-04-06T02:17:49;4.25;;;2.67;;
16403;SDS011;8311;50.158;8.642;2023-04-06T02:20:42;4.95;;;2.80;;
16403;SDS011;8311;50.158;8.642;2023-04-06T02:23:35;7.30;;;3.40;;
16403;SDS011;8311;50.158;8.642;2023-04-06T02:26:28;5.03;;;3.33;;
16403;SDS011;8311;50.158;8.642;2023-04-06T02:29:22;5.72;;;3.20;;
16403;SDS011;8311;50.158;8.642;2023-04-06T02:32:17;4.93;;;2.92;;
16403;SDS011;8311;50.158;8.642;2023-04-06T02:35:11;5.53;;;3.28;;
16403;SDS011;8311;50.158;8.642;2023-04-06T02:38:04;5.03;;;2.90;;
16403;SDS011;8311;50.158;8.642;2023-04-06T02:40:57;5.35;;;2.88;;
16403;SDS011;8311;50.158;8.642;2023-04-06T02:43:51;5.00;;;2.80;;
16403;SDS011;8311;50.158;8.642;2023-04-06T02:46:44;5.43;;;3.13;;
16403;SDS011;8311;50.158;8.642;2023-04-06T02:49:39;4.65;;;2.88;;
16403;SDS011;8311;50.158;8.642;2023-04-06T02:52:33;4.93;;;3.08;;
16403;SDS011;8311;50.158;8.642;2023-04-06T02:55:27;6.18;;;3.42;;
16403;SDS011;8311;50.158;8.642;2023-04-06T02:58:20;5.38;;;3.15;;
16403;SDS011;8311;50.158;8.642;2023-04-06T03:01:14;5.20;;;2.78;;
16403;SDS011;8311;50.158;8.642;2023-04-06T03:04:07;5.75;;;3.03;;
16403;SDS011;8311;50.158;8.642;2023-04-06T03:07:02;5.22;;;2.75;;
16403;SDS011;8311;50.158;8.642;2023-04-06T03:09:55;6.25;;;3.47;;
16403;SDS011;8311;50.158;8.642;2023-04-06T03:12:49;4.32;;;3.28;;
16403;SDS011;8311;50.158;8.642;2023-04-06T03:15:42;5.00;;;3.25;;
16403;SDS011;8311;50.158;8.642;2023-04-06T03:18:36;4.60;;;3.03;;
16403;SDS011;8311;50.158;8.642;2023-04-06T03:21:29;4.97;;;2.58;;
16403;SDS011;8311;50.158;8.642;2023-04-06T03:24:24;4.80;;;2.88;;
16403;SDS011;8311;50.158;8.642;2023-04-06T03:27:17;5.78;;;3.05;;
16403;SDS011;8311;50.158;8.642;2023-04-06T03:30:10;5.38;;;2.95;;
16403;SDS011;8311;50.158;8.642;2023-04-06T03:33:04;6.07;;;3.08;;
16403;SDS011;8311;50.158;8.642;2023-04-06T03:35:57;4.43;;;3.08;;
16403;SDS011;8311;50.158;8.642;2023-04-06T03:38:50;4.32;;;2.58;;
16403;SDS011;8311;50.158;8.642;2023-04-06T03:41:46;5.45;;;3.13;;
16403;SDS011;8311;50.158;8.642;2023-04-06T03:44:39;5.07;;;2.63;;
16403;SDS011;8311;50.158;8.642;2023-04-06T03:47:32;6.72;;;2.90;;
16403;SDS011;8311;50.158;8.642;2023-04-06T03:50:25;5.82;;;2.67;;
16403;SDS011;8311;50.158;8.642;2023-04-06T03:53:19;4.72;;;2.67;;
16403;SDS011;8311;50.158;8.642;2023-04-06T03:56:12;5.00;;;3.25;;
16403;SDS011;8311;50.158;8.642;2023-04-06T03:59:07;4.90;;;2.83;;
16403;SDS011;8311;50.158;8.642;2023-04-06T04:02:01;4.40;;;2.72;;
16403;SDS011;8311;50.158;8.642;2023-04-06T04:04:54;4.68;;;2.70;;
16403;SDS011;8311;50.158;8.642;2023-04-06T04:07:47;4.70;;;2.55;;
16403;SDS011;8311;50.158;8.642;2023-04-06T04:10:40;4.93;;;3.28;;
16403;SDS011;8311;50.158;8.642;2023-04-06T04:13:33;4.97;;;3.00;;
16403;SDS011;8311;50.158;8.642;2023-04-06T04:16:29;4.05;;;2.53;;
16403;SDS011;8311;50.158;8.642;2023-04-06T04:19:22;5.18;;;3.03;;
16403;SDS011;8311;50.158;8.642;2023-04-06T04:22:16;5.90;;;3.15;;
16403;SDS011;8311;50.158;8.642;2023-04-06T04:25:09;6.13;;;3.13;;
16403;SDS011;8311;50.158;8.642;2023-04-06T04:28:02;6.50;;;3.13;;
16403;SDS011;8311;50.158;8.642;2023-04-06T04:30:55;5.43;;;3.55;;
16403;SDS011;8311;50.158;8.642;2023-04-06T04:33:50;4.93;;;3.13;;
16403;SDS011;8311;50.158;8.642;2023-04-06T04:36:44;3.60;;;2.50;;
16403;SDS011;8311;50.158;8.642;2023-04-06T04:39:37;5.82;;;3.35;;
16403;SDS011;8311;50.158;8.642;2023-04-06T04:42:31;5.28;;;2.78;;
16403;SDS011;8311;50.158;8.642;2023-04-06T04:45:25;4.93;;;2.90;;
16403;SDS011;8311;50.158;8.642;2023-04-06T04:48:18;6.43;;;3.65;;
16403;SDS011;8311;50.158;8.642;2023-04-06T04:51:12;4.70;;;2.97;;
16403;SDS011;8311;50.158;8.642;2023-04-06T04:54:06;5.53;;;3.58;;
16403;SDS011;8311;50.158;8.642;2023-04-06T04:56:59;5.95;;;3.22;;
16403;SDS011;8311;50.158;8.642;2023-04-06T04:59:52;4.57;;;2.70;;
16403;SDS011;8311;50.158;8.642;2023-04-06T05:02:48;8.10;;;3.45;;
16403;SDS011;8311;50.158;8.642;2023-04-06T05:05:41;5.57;;;3.25;;
16403;SDS011;8311;50.158;8.642;2023-04-06T05:08:36;4.50;;;2.65;;
16403;SDS011;8311;50.158;8.642;2023-04-06T05:11:29;5.45;;;3.30;;
16403;SDS011;8311;50.158;8.642;2023-04-06T05:14:22;5.63;;;3.47;;
16403;SDS011;8311;50.158;8.642;2023-04-06T05:17:17;5.25;;;3.00;;
16403;SDS011;8311;50.158;8.642;2023-04-06T05:20:10;6.82;;;3.47;;
16403;SDS011;8311;50.158;8.642;2023-04-06T05:23:03;6.32;;;3.58;;
16403;SDS011;8311;50.158;8.642;2023-04-06T05:25:58;5.78;;;3.42;;
16403;SDS011;8311;50.158;8.642;2023-04-06T05:28:54;5.80;;;3.40;;
16403;SDS011;8311;50.158;8.642;2023-04-06T05:31:47;4.53;;;2.95;;
16403;SDS011;8311;50.158;8.642;2023-04-06T05:34:40;5.05;;;3.47;;
16403;SDS011;8311;50.158;8.642;2023-04-06T05:37:33;6.93;;;3.35;;
16403;SDS011;8311;50.158;8.642;2023-04-06T05:40:26;8.20;;;3.60;;
16403;SDS011;8311;50.158;8.642;2023-04-06T05:43:20;5.45;;;3.13;;
16403;SDS011;8311;50.158;8.642;2023-04-06T05:46:14;6.45;;;3.60;;
16403;SDS011;8311;50.158;8.642;2023-04-06T05:49:07;7.75;;;3.53;;
16403;SDS011;8311;50.158;8.642;2023-04-06T05:52:01;6.22;;;2.97;;
16403;SDS011;8311;50.158;8.642;2023-04-06T05:54:55;5.00;;;3.13;;
16403;SDS011;8311;50.158;8.642;2023-04-06T05:57:49;6.85;;;3.63;;
16403;SDS011;8311;50.158;8.642;2023-04-06T06:00:44;5.22;;;3.10;;
16403;SDS011;8311;50.158;8.642;2023-04-06T06:03:38;5.28;;;3.53;;
16403;SDS011;8311;50.158;8.642;2023-04-06T06:06:31;6.25;;;3.60;;
16403;SDS011;8311;50.158;8.642;2023-04-06T06:09:24;8.63;;;3.60;;
16403;SDS011;8311;50.158;8.642;2023-04-06T06:12:18;4.72;;;3.00;;
16403;SDS011;8311;50.158;8.642;2023-04-06T06:15:11;5.47;;;3.40;;
16403;SDS011;8311;50.158;8.642;2023-04-06T06:18:07;6.07;;;3.65;;
16403;SDS011;8311;50.158;8.642;2023-04-06T06:21:00;6.35;;;3.42;;
16403;SDS011;8311;50.158;8.642;2023-04-06T06:23:53;7.90;;;3.33;;
16403;SDS011;8311;50.158;8.642;2023-04-06T06:26:46;7.13;;;4.18;;
16403;SDS011;8311;50.158;8.642;2023-04-06T06:29:47;6.10;;;3.75;;
16403;SDS011;8311;50.158;8.642;2023-04-06T06:32:40;5.38;;;3.63;;
16403;SDS011;8311;50.158;8.642;2023-04-06T06:35:35;10.02;;;4.60;;
16403;SDS011;8311;50.158;8.642;2023-04-06T06:38:29;8.50;;;4.53;;
16403;SDS011;8311;50.158;8.642;2023-04-06T06:41:32;6.57;;;3.53;;
16403;SDS011;8311;50.158;8.642;2023-04-06T06:44:28;8.00;;;3.72;;
16403;SDS011;8311;50.158;8.642;2023-04-06T06:47:21;7.00;;;3.70;;
16403;SDS011;8311;50.158;8.642;2023-04-06T06:50:16;6.53;;;3.72;;
16403;SDS011;8311;50.158;8.642;2023-04-06T06:53:12;6.07;;;3.60;;
16403;SDS011;8311;50.158;8.642;2023-04-06T06:56:06;6.45;;;3.42;;
16403;SDS011;8311;50.158;8.642;2023-04-06T06:59:00;6.82;;;3.45;;
16403;SDS011;8311;50.158;8.642;2023-04-06T07:01:55;5.18;;;2.67;;
16403;SDS011;8311;50.158;8.642;2023-04-06T07:04:48;7.10;;;3.22;;
16403;SDS011;8311;50.158;8.642;2023-04-06T07:07:43;4.82;;;2.80;;
16403;SDS011;8311;50.158;8.642;2023-04-06T07:10:39;6.10;;;2.75;;
16403;SDS011;8311;50.158;8.642;2023-04-06T07:13:34;6.05;;;3.17;;
16403;SDS011;8311;50.158;8.642;2023-04-06T07:16:28;4.50;;;2.70;;
16403;SDS011;8311;50.158;8.642;2023-04-06T07:19:24;5.15;;;2.97;;
16403;SDS011;8311;50.158;8.642;2023-04-06T07:22:18;7.00;;;3.22;;
16403;SDS011;8311;50.158;8.642;2023-04-06T07:25:14;7.50;;;3.08;;
16403;SDS011;8311;50.158;8.642;2023-04-06T07:28:11;5.57;;;2.88;;
16403;SDS011;8311;50.158;8.642;2023-04-06T07:31:05;5.05;;;3.10;;
16403;SDS011;8311;50.158;8.642;2023-04-06T07:33:59;7.20;;;2.92;;
16403;SDS011;8311;50.158;8.642;2023-04-06T07:36:53;4.50;;;2.30;;
16403;SDS011;8311;50.158;8.642;2023-04-06T07:39:48;5.50;;;2.50;;
16403;SDS011;8311;50.158;8.642;2023-04-06T07:42:44;8.18;;;3.22;;
16403;SDS011;8311;50.158;8.642;2023-04-06T07:45:39;5.60;;;2.45;;
16403;SDS011;8311;50.158;8.642;2023-04-06T07:48:33;5.43;;;2.92;;
16403;SDS011;8311;50.158;8.642;2023-04-06T07:51:28;11.00;;;3.28;;
16403;SDS011;8311;50.158;8.642;2023-04-06T07:54:26;9.20;;;3.42;;
16403;SDS011;8311;50.158;8.642;2023-04-06T07:57:19;12.27;;;2.92;;
16403;SDS011;8311;50.158;8.642;2023-04-06T08:00:14;8.70;;;3.50;;
16403;SDS011;8311;50.158;8.642;2023-04-06T08:03:09;6.30;;;3.47;;
16403;SDS011;8311;50.158;8.642;2023-04-06T08:06:03;8.77;;;3.42;;
16403;SDS011;8311;50.158;8.642;2023-04-06T08:08:56;8.10;;;3.40;;
16403;SDS011;8311;50.158;8.642;2023-04-06T08:11:50;6.63;;;3.10;;
16403;SDS011;8311;50.158;8.642;2023-04-06T08:14:43;8.27;;;3.17;;
16403;SDS011;8311;50.158;8.642;2023-04-06T08:17:36;5.25;;;2.55;;
16403;SDS011;8311;50.158;8.642;2023-04-06T08:20:32;6.53;;;2.95;;
16403;SDS011;8311;50.158;8.642;2023-04-06T08:23:25;6.63;;;3.15;;
16403;SDS011;8311;50.158;8.642;2023-04-06T08:26:18;5.60;;;2.88;;
16403;SDS011;8311;50.158;8.642;2023-04-06T08:29:12;4.50;;;2.80;;
16403;SDS011;8311;50.158;8.642;2023-04-06T08:32:05;5.57;;;3.05;;
16403;SDS011;8311;50.158;8.642;2023-04-06T08:34:59;6.55;;;2.75;;
16403;SDS011;8311;50.158;8.642;2023-04-06T08:37:54;7.55;;;2.60;;
16403;SDS011;8311;50.158;8.642;2023-04-06T08:40:48;5.28;;;2.45;;
16403;SDS011;8311;50.158;8.642;2023-04-06T08:43:46;4.65;;;2.40;;
16403;SDS011;8311;50.158;8.642;2023-04-06T08:46:45;4.82;;;2.78;;
16403;SDS011;8311;50.158;8.642;2023-04-06T08:49:39;5.93;;;2.83;;
16403;SDS011;8311;50.158;8.642;2023-04-06T08:52:34;6.75;;;2.45;;
16403;SDS011;8311;50.158;8.642;2023-04-06T08:55:30;4.53;;;2.60;;
16403;SDS011;8311;50.158;8.642;2023-04-06T08:58:25;4.93;;;2.58;;
16403;SDS011;8311;50.158;8.642;2023-04-06T09:01:28;7.15;;;2.72;;
16403;SDS011;8311;50.158;8.642;2023-04-06T09:04:24;7.40;;;2.85;;
16403;SDS011;8311;50.158;8.642;2023-04-06T09:07:19;6.30;;;2.72;;
16403;SDS011;8311;50.158;8.642;2023-04-06T09:10:14;5.78;;;2.63;;
16403;SDS011;8311;50.158;8.642;2023-04-06T09:13:11;4.13;;;2.53;;
16403;SDS011;8311;50.158;8.642;2023-04-06T09:16:04;6.00;;;3.22;;
16403;SDS011;8311;50.158;8.642;2023-04-06T09:19:03;5.75;;;2.90;;
16403;SDS011;8311;50.158;8.642;2023-04-06T09:22:01;4.22;;;2.53;;
16403;SDS011;8311;50.158;8.642;2023-04-06T09:24:55;4.50;;;2.72;;
16403;SDS011;8311;50.158;8.642;2023-04-06T09:27:58;5.20;;;2.58;;
16403;SDS011;8311;50.158;8.642;2023-04-06T09:30:54;7.35;;;3.05;;
16403;SDS011;8311;50.158;8.642;2023-04-06T09:33:48;6.93;;;2.55;;
16403;SDS011;8311;50.158;8.642;2023-04-06T09:36:43;5.45;;;2.42;;
16403;SDS011;8311;50.158;8.642;2023-04-06T09:39:36;4.40;;;2.67;;
16403;SDS011;8311;50.158;8.642;2023-04-06T09:42:29;5.38;;;3.03;;
16403;SDS011;8311;50.158;8.642;2023-04-06T09:45:23;5.00;;;2.67;;
16403;SDS011;8311;50.158;8.642;2023-04-06T09:48:17;5.28;;;2.60;;
16403;SDS011;8311;50.158;8.642;2023-04-06T09:51:13;4.38;;;2.35;;
16403;SDS011;8311;50.158;8.642;2023-04-06T09:54:07;5.78;;;2.63;;
16403;SDS011;8311;50.158;8.642;2023-04-06T09:57:08;5.35;;;2.40;;
16403;SDS011;8311;50.158;8.642;2023-04-06T10:00:07;4.05;;;2.28;;
16403;SDS011;8311;50.158;8.642;2023-04-06T10:03:04;4.75;;;2.60;;
16403;SDS011;8311;50.158;8.642;2023-04-06T10:06:10;6.82;;;3.10;;
16403;SDS011;8311;50.158;8.642;2023-04-06T10:09:06;5.25;;;2.60;;
16403;SDS011;8311;50.158;8.642;2023-04-06T10:12:01;7.95;;;3.03;;
16403;SDS011;8311;50.158;8.642;2023-04-06T10:15:02;5.85;;;2.42;;
16403;SDS011;8311;50.158;8.642;2023-04-06T10:17:57;4.22;;;2.40;;
16403;SDS011;8311;50.158;8.642;2023-04-06T10:20:53;5.55;;;2.60;;
16403;SDS011;8311;50.158;8.642;2023-04-06T10:23:52;4.28;;;2.20;;
16403;SDS011;8311;50.158;8.642;2023-04-06T10:26:56;5.40;;;2.47;;
16403;SDS011;8311;50.158;8.642;2023-04-06T10:29:51;7.90;;;2.95;;
16403;SDS011;8311;50.158;8.642;2023-04-06T10:32:44;6.15;;;3.00;;
16403;SDS011;8311;50.158;8.642;2023-04-06T10:35:38;4.55;;;2.10;;
16403;SDS011;8311;50.158;8.642;2023-04-06T10:38:35;6.85;;;2.45;;
16403;SDS011;8311;50.158;8.642;2023-04-06T10:41:33;4.93;;;2.65;;
16403;SDS011;8311;50.158;8.642;2023-04-06T10:44:27;3.72;;;2.40;;
16403;SDS011;8311;50.158;8.642;2023-04-06T10:47:20;5.03;;;2.60;;
16403;SDS011;8311;50.158;8.642;2023-04-06T10:50:14;6.03;;;2.53;;
16403;SDS011;8311;50.158;8.642;2023-04-06T10:53:09;4.45;;;2.67;;
16403;SDS011;8311;50.158;8.642;2023-04-06T10:56:02;4.25;;;2.20;;
16403;SDS011;8311;50.158;8.642;2023-04-06T10:58:58;3.67;;;2.35;;
16403;SDS011;8311;50.158;8.642;2023-04-06T11:01:52;5.25;;;2.45;;
16403;SDS011;8311;50.158;8.642;2023-04-06T11:04:56;3.78;;;2.60;;
16403;SDS011;8311;50.158;8.642;2023-04-06T11:07:50;4.57;;;2.08;;
16403;SDS011;8311;50.158;8.642;2023-04-06T11:10:47;6.00;;;2.85;;
16403;SDS011;8311;50.158;8.642;2023-04-06T11:13:41;4.78;;;2.70;;
16403;SDS011;8311;50.158;8.642;2023-04-06T11:16:36;4.82;;;2.90;;
16403;SDS011;8311;50.158;8.642;2023-04-06T11:19:31;4.97;;;2.25;;
16403;SDS011;8311;50.158;8.642;2023-04-06T11:22:24;5.10;;;2.92;;
16403;SDS011;8311;50.158;8.642;2023-04-06T11:25:19;4.20;;;2.55;;
16403;SDS011;8311;50.158;8.642;2023-04-06T11:28:13;3.75;;;2.20;;
16403;SDS011;8311;50.158;8.642;2023-04-06T11:31:07;3.58;;;2.50;;
16403;SDS011;8311;50.158;8.642;2023-04-06T11:34:03;3.65;;;2.45;;
16403;SDS011;8311;50.158;8.642;2023-04-06T11:37:03;4.97;;;2.33;;
16403;SDS011;8311;50.158;8.642;2023-04-06T11:40:00;4.40;;;2.40;;
16403;SDS011;8311;50.158;8.642;2023-04-06T11:42:54;3.67;;;2.17;;
16403;SDS011;8311;50.158;8.642;2023-04-06T11:45:47;4.75;;;2.70;;
16403;SDS011;8311;50.158;8.642;2023-04-06T11:48:43;4.78;;;2.67;;
16403;SDS011;8311;50.158;8.642;2023-04-06T11:51:39;3.70;;;2.35;;
16403;SDS011;8311;50.158;8.642;2023-04-06T11:54:33;5.05;;;2.53;;
16403;SDS011;8311;50.158;8.642;2023-04-06T11:57:28;5.88;;;2.53;;
16403;SDS011;8311;50.158;8.642;2023-04-06T12:00:24;4.43;;;2.30;;
16403;SDS011;8311;50.158;8.642;2023-04-06T12:03:18;5.05;;;2.38;;
16403;SDS011;8311;50.158;8.642;2023-04-06T12:06:12;5.80;;;2.92;;
16403;SDS011;8311;50.158;8.642;2023-04-06T12:09:07;6.18;;;2.80;;
16403;SDS011;8311;50.158;8.642;2023-04-06T12:12:01;4.88;;;2.33;;
16403;SDS011;8311;50.158;8.642;2023-04-06T12:14:55;4.35;;;2.47;;
16403;SDS011;8311;50.158;8.642;2023-04-06T12:17:48;3.83;;;2.10;;
16403;SDS011;8311;50.158;8.642;2023-04-06T12:20:42;4.10;;;2.63;;
16403;SDS011;8311;50.158;8.642;2023-04-06T12:23:35;5.63;;;2.80;;
16403;SDS011;8311;50.158;8.642;2023-04-06T12:26:30;6.95;;;2.60;;
16403;SDS011;8311;50.158;8.642;2023-04-06T12:29:24;5.00;;;2.63;;
16403;SDS011;8311;50.158;8.642;2023-04-06T12:32:17;4.10;;;2.40;;
16403;SDS011;8311;50.158;8.642;2023-04-06T12:35:11;4.38;;;2.47;;
16403;SDS011;8311;50.158;8.642;2023-04-06T12:38:06;5.00;;;2.10;;
16403;SDS011;8311;50.158;8.642;2023-04-06T12:41:00;5.50;;;2.38;;
16403;SDS011;8311;50.158;8.642;2023-04-06T12:43:55;6.07;;;2.28;;
16403;SDS011;8311;50.158;8.642;2023-04-06T12:46:49;4.43;;;2.28;;
16403;SDS011;8311;50.158;8.642;2023-04-06T12:49:42;8.55;;;2.30;;
16403;SDS011;8311;50.158;8.642;2023-04-06T12:52:37;4.68;;;2.45;;
16403;SDS011;8311;50.158;8.642;2023-04-06T12:55:31;5.40;;;2.13;;
16403;SDS011;8311;50.158;8.642;2023-04-06T12:58:27;6.18;;;2.63;;
16403;SDS011;8311;50.158;8.642;2023-04-06T13:01:22;3.45;;;2.30;;
16403;SDS011;8311;50.158;8.642;2023-04-06T13:04:17;4.20;;;2.13;;
16403;SDS011;8311;50.158;8.642;2023-04-06T13:07:10;4.43;;;2.13;;
16403;SDS011;8311;50.158;8.642;2023-04-06T13:10:04;5.60;;;2.58;;
16403;SDS011;8311;50.158;8.642;2023-04-06T13:12:58;4.00;;;2.00;;
16403;SDS011;8311;50.158;8.642;2023-04-06T13:15:54;4.20;;;2.08;;
16403;SDS011;8311;50.158;8.642;2023-04-06T13:18:54;5.00;;;2.42;;
16403;SDS011;8311;50.158;8.642;2023-04-06T13:21:48;4.63;;;2.05;;
16403;SDS011;8311;50.158;8.642;2023-04-06T13:24:42;4.43;;;2.28;;
16403;SDS011;8311;50.158;8.642;2023-04-06T13:27:36;3.20;;;1.80;;
16403;SDS011;8311;50.158;8.642;2023-04-06T13:30:29;4.88;;;2.45;;
16403;SDS011;8311;50.158;8.642;2023-04-06T13:33:23;4.60;;;1.95;;
16403;SDS011;8311;50.158;8.642;2023-04-06T13:36:18;4.45;;;2.25;;
16403;SDS011;8311;50.158;8.642;2023-04-06T13:39:12;4.10;;;2.33;;
16403;SDS011;8311;50.158;8.642;2023-04-06T13:42:05;3.25;;;2.10;;
16403;SDS011;8311;50.158;8.642;2023-04-06T13:44:59;4.95;;;2.13;;
16403;SDS011;8311;50.158;8.642;2023-04-06T13:47:52;3.03;;;1.83;;
16403;SDS011;8311;50.158;8.642;2023-04-06T13:50:47;3.65;;;2.13;;
16403;SDS011;8311;50.158;8.642;2023-04-06T13:53:41;3.08;;;1.90;;
16403;SDS011;8311;50.158;8.642;2023-04-06T13:56:35;3.50;;;2.05;;
16403;SDS011;8311;50.158;8.642;2023-04-06T13:59:31;3.38;;;1.95;;
16403;SDS011;8311;50.158;8.642;2023-04-06T14:02:25;5.07;;;1.92;;
16403;SDS011;8311;50.158;8.642;2023-04-06T14:05:19;3.42;;;2.03;;
16403;SDS011;8311;50.158;8.642;2023-04-06T14:08:14;3.22;;;1.90;;
16403;SDS011;8311;50.158;8.642;2023-04-06T14:11:11;4.30;;;1.77;;
16403;SDS011;8311;50.158;8.642;2023-04-06T14:14:06;4.38;;;1.98;;
16403;SDS011;8311;50.158;8.642;2023-04-06T14:16:59;3.67;;;1.80;;
16403;SDS011;8311;50.158;8.642;2023-04-06T14:19:53;4.10;;;1.70;;
16403;SDS011;8311;50.158;8.642;2023-04-06T14:22:46;3.00;;;1.85;;
16403;SDS011;8311;50.158;8.642;2023-04-06T14:25:41;5.03;;;2.20;;
16403;SDS011;8311;50.158;8.642;2023-04-06T14:28:36;3.17;;;1.80;;
16403;SDS011;8311;50.158;8.642;2023-04-06T14:31:30;4.00;;;2.00;;
16403;SDS011;8311;50.158;8.642;2023-04-06T14:34:23;3.03;;;1.85;;
16403;SDS011;8311;50.158;8.642;2023-04-06T14:37:18;2.92;;;1.77;;
16403;SDS011;8311;50.158;8.642;2023-04-06T14:40:12;3.10;;;1.70;;
16403;SDS011;8311;50.158;8.642;2023-04-06T14:43:06;4.10;;;2.00;;
16403;SDS011;8311;50.158;8.642;2023-04-06T14:46:01;3.78;;;1.92;;
16403;SDS011;8311;50.158;8.642;2023-04-06T14:48:55;3.78;;;1.98;;
16403;SDS011;8311;50.158;8.642;2023-04-06T14:51:49;2.65;;;2.00;;
16403;SDS011;8311;50.158;8.642;2023-04-06T14:54:43;3.55;;;2.15;;
16403;SDS011;8311;50.158;8.642;2023-04-06T14:57:36;2.88;;;1.75;;
16403;SDS011;8311;50.158;8.642;2023-04-06T15:00:30;2.53;;;1.63;;
16403;SDS011;8311;50.158;8.642;2023-04-06T15:03:25;2.55;;;1.80;;
16403;SDS011;8311;50.158;8.642;2023-04-06T15:06:19;3.00;;;1.63;;
16403;SDS011;8311;50.158;8.642;2023-04-06T15:09:13;2.88;;;1.80;;
16403;SDS011;8311;50.158;8.642;2023-04-06T15:12:10;2.95;;;1.92;;
16403;SDS011;8311;50.158;8.642;2023-04-06T15:15:03;3.15;;;1.52;;
16403;SDS011;8311;50.158;8.642;2023-04-06T15:17:57;3.33;;;1.52;;
16403;SDS011;8311;50.158;8.642;2023-04-06T15:20:55;4.78;;;2.38;;
16403;SDS011;8311;50.158;8.642;2023-04-06T15:23:49;3.22;;;1.95;;
16403;SDS011;8311;50.158;8.642;2023-04-06T15:26:42;3.15;;;1.90;;
16403;SDS011;8311;50.158;8.642;2023-04-06T15:29:37;3.03;;;1.83;;
16403;SDS011;8311;50.158;8.642;2023-04-06T15:32:30;2.35;;;1.63;;
16403;SDS011;8311;50.158;8.642;2023-04-06T15:35:25;3.08;;;1.67;;
16403;SDS011;8311;50.158;8.642;2023-04-06T15:38:20;4.15;;;1.50;;
16403;SDS011;8311;50.158;8.642;2023-04-06T15:41:14;3.03;;;1.50;;
16403;SDS011;8311;50.158;8.642;2023-04-06T15:44:08;2.83;;;1.70;;
16403;SDS011;8311;50.158;8.642;2023-04-06T15:47:02;2.72;;;1.63;;
16403;SDS011;8311;50.158;8.642;2023-04-06T15:49:56;2.38;;;1.63;;
16403;SDS011;8311;50.158;8.642;2023-04-06T15:52:49;3.45;;;1.70;;
16403;SDS011;8311;50.158;8.642;2023-04-06T15:55:44;3.58;;;1.38;;
16403;SDS011;8311;50.158;8.642;2023-04-06T15:58:37;2.30;;;1.50;;
16403;SDS011;8311;50.158;8.642;2023-04-06T16:01:31;3.60;;;1.98;;
16403;SDS011;8311;50.158;8.642;2023-04-06T16:04:25;2.05;;;1.30;;
16403;SDS011;8311;50.158;8.642;2023-04-06T16:07:18;3.42;;;1.67;;
16403;SDS011;8311;50.158;8.642;2023-04-06T16:10:11;2.70;;;1.63;;
16403;SDS011;8311;50.158;8.642;2023-04-06T16:13:05;2.78;;;1.63;;
16403;SDS011;8311;50.158;8.642;2023-04-06T16:15:59;3.08;;;1.73;;
16403;SDS011;8311;50.158;8.642;2023-04-06T16:18:53;2.75;;;1.48;;
16403;SDS011;8311;50.158;8.642;2023-04-06T16:21:46;2.88;;;1.60;;
16403;SDS011;8311;50.158;8.642;2023-04-06T16:24:40;3.55;;;1.60;;
16403;SDS011;8311;50.158;8.642;2023-04-06T16:27:34;3.20;;;1.70;;
16403;SDS011;8311;50.158;8.642;2023-04-06T16:30:28;2.47;;;1.42;;
16403;SDS011;8311;50.158;8.642;2023-04-06T16:33:22;3.80;;;1.45;;
16403;SDS011;8311;50.158;8.642;2023-04-06T16:36:20;2.08;;;1.30;;
16403;SDS011;8311;50.158;8.642;2023-04-06T16:39:14;1.92;;;1.38;;
16403;SDS011;8311;50.158;8.642;2023-04-06T16:42:07;3.55;;;1.63;;
16403;SDS011;8311;50.158;8.642;2023-04-06T16:45:01;2.92;;;1.42;;
16403;SDS011;8311;50.158;8.642;2023-04-06T16:47:56;1.90;;;1.30;;
16403;SDS011;8311;50.158;8.642;2023-04-06T16:50:50;2.70;;;1.40;;
16403;SDS011;8311;50.158;8.642;2023-04-06T16:53:44;2.95;;;1.45;;
16403;SDS011;8311;50.158;8.642;2023-04-06T16:56:39;3.42;;;1.75;;
16403;SDS011;8311;50.158;8.642;2023-04-06T16:59:32;1.58;;;1.30;;
16403;SDS011;8311;50.158;8.642;2023-04-06T17:02:26;2.65;;;1.60;;
16403;SDS011;8311;50.158;8.642;2023-04-06T17:05:21;2.08;;;1.45;;
16403;SDS011;8311;50.158;8.642;2023-04-06T17:08:17;3.67;;;1.10;;
16403;SDS011;8311;50.158;8.642;2023-04-06T17:11:10;1.95;;;1.20;;
16403;SDS011;8311;50.158;8.642;2023-04-06T17:14:07;4.10;;;2.42;;
16403;SDS011;8311;50.158;8.642;2023-04-06T17:17:01;6.60;;;3.65;;
16403;SDS011;8311;50.158;8.642;2023-04-06T17:19:55;6.20;;;3.83;;
16403;SDS011;8311;50.158;8.642;2023-04-06T17:22:49;8.77;;;4.47;;
16403;SDS011;8311;50.158;8.642;2023-04-06T17:25:43;9.05;;;4.05;;
16403;SDS011;8311;50.158;8.642;2023-04-06T17:28:36;6.18;;;3.00;;
16403;SDS011;8311;50.158;8.642;2023-04-06T17:31:30;4.80;;;2.63;;
16403;SDS011;8311;50.158;8.642;2023-04-06T17:34:23;4.60;;;2.20;;
16403;SDS011;8311;50.158;8.642;2023-04-06T17:37:17;3.78;;;1.92;;
16403;SDS011;8311;50.158;8.642;2023-04-06T17:40:11;5.05;;;2.03;;
16403;SDS011;8311;50.158;8.642;2023-04-06T17:43:05;3.75;;;2.28;;
16403;SDS011;8311;50.158;8.642;2023-04-06T17:45:59;3.05;;;1.80;;